Time;durP1;ratioP1;P1;durP2;ratioP2;P2;SDS_P1;SDS_P2;PMS_P1;PMS_P2;Temp;Humidity;BMP_temperature;BMP_pressure;BME280_temperature;BME280_humidity;BME280_pressure;Samples;Min_cycle;Max_cycle;Signal;HPM_P1;HPM_P2
2022/06/26 00:02:05;;;;;;;9.88;1.92;;;43.90;26.30;;;;;;4972268;28;20026;-66
2022/06/26 00:04:31;;;;;;;10.63;2.08;;;43.80;26.40;;;;;;4971656;28;20157;-66
2022/06/26 00:06:59;;;;;;;9.02;2.00;;;43.70;26.90;;;;;;4970731;28;20023;-65
2022/06/26 00:09:27;;;;;;;5.10;1.65;;;43.70;26.80;;;;;;4971564;28;20119;-66
2022/06/26 00:11:54;;;;;;;7.18;1.98;;;43.70;26.90;;;;;;4972621;28;20031;-66
2022/06/26 00:14:20;;;;;;;8.48;2.30;;;43.80;26.60;;;;;;4971531;28;20027;-70
2022/06/26 00:16:46;;;;;;;9.82;2.10;;;43.70;26.50;;;;;;4971067;28;20030;-69
2022/06/26 00:19:13;;;;;;;7.70;2.10;;;43.60;26.60;;;;;;4971038;28;20042;-68
2022/06/26 00:21:40;;;;;;;8.00;2.33;;;43.60;26.40;;;;;;4971822;28;20233;-67
2022/06/26 00:24:06;;;;;;;18.25;2.20;;;43.40;26.80;;;;;;4971901;28;20026;-67
2022/06/26 00:26:33;;;;;;;11.63;2.53;;;43.30;26.90;;;;;;4951242;28;20182;-67
2022/06/26 00:28:59;;;;;;;10.57;2.00;;;43.10;26.80;;;;;;4969385;28;20402;-67
2022/06/26 00:31:26;;;;;;;6.68;1.98;;;43.20;27.30;;;;;;4970814;28;20035;-67
2022/06/26 00:33:52;;;;;;;12.15;2.20;;;43.10;27.10;;;;;;4968677;28;20026;-67
2022/06/26 00:36:19;;;;;;;8.43;1.70;;;43.20;27.10;;;;;;4970084;28;20027;-67
2022/06/26 00:38:45;;;;;;;7.78;2.00;;;43.00;27.10;;;;;;4971877;28;20031;-67
2022/06/26 00:41:11;;;;;;;9.07;2.22;;;43.10;27.80;;;;;;4970348;28;20027;-67
2022/06/26 00:43:38;;;;;;;8.38;2.08;;;43.00;27.00;;;;;;4971886;28;20034;-68
2022/06/26 00:46:07;;;;;;;8.80;1.63;;;42.90;27.10;;;;;;4972123;28;20023;-67
2022/06/26 00:48:33;;;;;;;5.82;1.70;;;42.80;27.30;;;;;;4970577;28;20026;-67
2022/06/26 00:51:00;;;;;;;6.88;1.88;;;42.80;27.50;;;;;;4971303;28;20029;-67
2022/06/26 00:53:26;;;;;;;5.68;2.05;;;42.80;27.10;;;;;;4954458;28;20034;-67
2022/06/26 00:55:53;;;;;;;10.88;1.75;;;42.70;27.00;;;;;;4969456;28;20035;-67
2022/06/26 00:58:20;;;;;;;6.97;2.13;;;42.70;27.40;;;;;;4982986;28;20029;-71
2022/06/26 01:00:46;;;;;;;8.88;2.10;;;42.60;27.60;;;;;;4971481;28;20027;-68
2022/06/26 01:03:13;;;;;;;10.82;1.85;;;42.50;27.00;;;;;;4971160;28;20080;-68
2022/06/26 01:05:39;;;;;;;7.35;2.00;;;42.40;27.10;;;;;;4970279;28;20031;-68
2022/06/26 01:08:07;;;;;;;10.18;2.13;;;42.30;27.20;;;;;;4970766;28;20096;-69
2022/06/26 01:10:35;;;;;;;9.30;1.80;;;42.20;27.60;;;;;;4971728;28;20018;-67
2022/06/26 01:13:01;;;;;;;8.05;1.75;;;42.20;27.30;;;;;;4971276;28;20025;-67
2022/06/26 01:15:28;;;;;;;10.57;1.80;;;42.10;27.10;;;;;;4972007;28;20038;-67
2022/06/26 01:17:55;;;;;;;10.02;2.00;;;42.20;27.50;;;;;;4970971;28;20030;-67
2022/06/26 01:20:22;;;;;;;6.88;1.85;;;42.10;27.60;;;;;;4955988;28;20053;-68
2022/06/26 01:23:03;;;;;;;10.70;2.28;;;41.90;27.70;;;;;;4970107;28;20030;-68
2022/06/26 01:25:47;;;;;;;12.13;2.40;;;41.80;28.20;;;;;;4954512;28;20482;-68
2022/06/26 01:28:14;;;;;;;10.57;1.98;;;41.70;27.90;;;;;;4953906;28;20070;-69
2022/06/26 01:30:41;;;;;;;6.07;1.98;;;41.70;28.30;;;;;;4954052;28;20026;-70
2022/06/26 01:33:08;;;;;;;14.88;1.98;;;41.60;28.50;;;;;;4970901;28;20477;-67
2022/06/26 01:35:35;;;;;;;6.57;1.95;;;41.50;28.70;;;;;;4969915;28;20031;-69
2022/06/26 01:38:15;;;;;;;7.40;2.35;;;41.40;29.00;;;;;;4969335;28;20057;-69
2022/06/26 01:40:43;;;;;;;14.75;2.00;;;41.30;29.30;;;;;;4968391;28;20976;-69
2022/06/26 01:43:11;;;;;;;12.45;1.90;;;41.20;29.60;;;;;;4969254;28;20066;-68
2022/06/26 01:45:46;;;;;;;12.75;2.50;;;41.10;29.70;;;;;;4985244;28;20038;-67
2022/06/26 01:48:13;;;;;;;34.60;3.92;;;41.10;29.80;;;;;;4952879;28;20027;-65
2022/06/26 01:50:39;;;;;;;4.90;1.83;;;41.00;30.30;;;;;;4969833;28;20034;-70
2022/06/26 01:53:05;;;;;;;10.85;2.08;;;40.90;29.80;;;;;;4973200;28;20419;-67
2022/06/26 01:55:32;;;;;;;3.65;1.92;;;40.80;29.90;;;;;;4985197;28;20369;-67
2022/06/26 01:58:02;;;;;;;15.20;2.40;;;40.70;29.60;;;;;;4969270;28;20046;-69
2022/06/26 02:00:35;;;;;;;8.55;2.03;;;40.70;30.00;;;;;;4969532;28;20034;-67
2022/06/26 02:03:01;;;;;;;6.15;2.20;;;40.50;30.30;;;;;;4968951;28;20142;-69
2022/06/26 02:05:28;;;;;;;8.77;2.33;;;40.50;30.10;;;;;;4969028;28;20045;-68
2022/06/26 02:07:54;;;;;;;16.45;2.50;;;40.40;30.70;;;;;;4954203;28;20078;-67
2022/06/26 02:13:55;;;;;;;13.82;2.35;;;40.20;31.60;;;;;;4969660;28;20154;-69
2022/06/26 02:15:57;;;;;;;8.73;2.45;;;40.20;32.00;;;;;;4978714;28;20031;-68
2022/06/26 02:18:24;;;;;;;15.73;2.95;;;40.00;32.30;;;;;;4969380;28;20451;-68
2022/06/26 02:20:53;;;;;;;18.00;2.55;;;40.00;32.70;;;;;;4969673;28;20121;-68
2022/06/26 02:23:19;;;;;;;11.15;2.95;;;39.80;33.10;;;;;;4967938;28;20023;-67
2022/06/26 02:25:46;;;;;;;13.27;2.50;;;39.80;33.50;;;;;;4968884;28;20027;-66
2022/06/26 02:28:12;;;;;;;10.75;2.72;;;39.60;33.80;;;;;;4967167;28;20023;-68
2022/06/26 02:30:39;;;;;;;14.98;2.45;;;39.50;34.00;;;;;;4971767;28;20024;-69
2022/06/26 02:33:05;;;;;;;8.65;2.22;;;39.40;33.90;;;;;;4969749;28;20023;-69
2022/06/26 02:35:32;;;;;;;17.05;3.22;;;39.30;34.00;;;;;;4969494;28;20547;-67
2022/06/26 02:37:58;;;;;;;20.40;3.03;;;39.20;34.20;;;;;;4968360;28;20469;-67
2022/06/26 02:40:26;;;;;;;12.25;2.75;;;39.20;34.10;;;;;;4982358;28;20034;-70
2022/06/26 02:42:53;;;;;;;15.45;2.70;;;39.10;34.30;;;;;;4975402;28;20030;-67
2022/06/26 02:45:19;;;;;;;13.75;2.90;;;39.10;34.60;;;;;;4970280;28;20033;-65
2022/06/26 02:47:46;;;;;;;17.80;2.97;;;39.00;34.70;;;;;;4971642;28;20035;-64
2022/06/26 02:50:13;;;;;;;12.18;2.50;;;38.90;34.90;;;;;;4968008;28;20085;-64
2022/06/26 02:52:40;;;;;;;20.02;2.70;;;38.90;35.10;;;;;;4970045;28;20486;-64
2022/06/26 02:55:07;;;;;;;12.85;3.05;;;38.80;35.40;;;;;;4984890;28;20343;-65
2022/06/26 02:57:33;;;;;;;9.20;2.72;;;38.70;35.80;;;;;;4967950;28;20399;-65
2022/06/26 03:00:00;;;;;;;14.48;2.55;;;38.70;36.20;;;;;;4965660;28;20018;-65
2022/06/26 03:02:26;;;;;;;11.20;2.38;;;38.50;36.50;;;;;;4967667;28;20061;-66
2022/06/26 03:04:54;;;;;;;15.35;2.75;;;38.40;36.90;;;;;;4968336;28;20481;-66
2022/06/26 03:07:21;;;;;;;15.90;3.00;;;38.40;37.20;;;;;;4967314;28;20087;-65
2022/06/26 03:09:48;;;;;;;17.15;2.88;;;38.30;37.30;;;;;;4970107;28;20096;-64
2022/06/26 03:12:15;;;;;;;12.27;2.80;;;38.20;37.20;;;;;;4968238;28;20083;-66
2022/06/26 03:14:41;;;;;;;23.40;3.00;;;38.20;37.20;;;;;;4968413;28;20074;-65
2022/06/26 03:17:08;;;;;;;13.35;2.70;;;38.10;37.30;;;;;;4977050;28;20044;-67
2022/06/26 03:19:34;;;;;;;16.80;2.90;;;38.10;37.90;;;;;;4968189;28;20069;-67
2022/06/26 03:22:00;;;;;;;24.88;2.95;;;38.00;38.20;;;;;;4968927;28;20074;-66
2022/06/26 03:24:27;;;;;;;23.85;3.42;;;38.00;38.50;;;;;;4953020;28;20115;-67
2022/06/26 03:26:53;;;;;;;18.35;3.83;;;37.80;39.00;;;;;;4968196;28;20061;-66
2022/06/26 03:29:20;;;;;;;20.83;3.08;;;37.70;39.50;;;;;;4969681;28;20394;-66
2022/06/26 03:31:46;;;;;;;22.33;3.05;;;37.60;39.80;;;;;;4967587;28;20094;-64
2022/06/26 03:34:12;;;;;;;23.40;3.60;;;37.50;40.20;;;;;;4967872;28;20065;-65
2022/06/26 03:36:39;;;;;;;20.15;3.38;;;37.40;40.20;;;;;;4967908;28;20042;-64
2022/06/26 03:39:05;;;;;;;18.85;3.17;;;37.40;40.40;;;;;;4968276;28;20045;-65
2022/06/26 03:41:32;;;;;;;21.25;3.03;;;37.30;40.30;;;;;;4985046;28;20895;-66
2022/06/26 03:43:59;;;;;;;27.73;3.97;;;37.30;40.00;;;;;;4969944;28;20055;-64
2022/06/26 03:46:27;;;;;;;12.25;2.42;;;37.20;40.40;;;;;;4968598;28;20421;-67
2022/06/26 03:48:53;;;;;;;18.90;3.05;;;37.00;40.90;;;;;;4969245;28;20563;-66
2022/06/26 03:51:19;;;;;;;19.40;3.03;;;36.90;41.60;;;;;;4969443;28;20039;-68
2022/06/26 03:53:46;;;;;;;23.13;3.03;;;36.80;42.10;;;;;;4969989;28;20043;-65
2022/06/26 03:56:13;;;;;;;20.83;3.80;;;36.80;42.60;;;;;;4968612;28;20069;-67
2022/06/26 03:58:39;;;;;;;14.70;3.55;;;36.70;42.80;;;;;;4970330;28;20077;-68
2022/06/26 04:01:06;;;;;;;19.17;3.60;;;36.60;43.10;;;;;;4967333;28;20069;-65
2022/06/26 04:03:32;;;;;;;14.93;3.33;;;36.50;43.40;;;;;;4956715;28;20544;-65
2022/06/26 04:05:59;;;;;;;18.52;3.47;;;36.40;44.30;;;;;;4971484;28;20085;-67
2022/06/26 04:14:33;;;;;;;28.10;3.92;;;36.00;44.90;;;;;;6053286;23;20059;31
2022/06/26 04:17:00;;;;;;;18.85;3.33;;;35.90;44.60;;;;;;4948910;28;20138;-66
2022/06/26 04:19:26;;;;;;;29.83;3.88;;;35.80;44.60;;;;;;4965783;28;20559;-66
2022/06/26 04:21:53;;;;;;;24.23;3.70;;;35.70;44.50;;;;;;4951653;28;20047;-64
2022/06/26 04:24:19;;;;;;;20.63;3.60;;;35.60;44.80;;;;;;4954402;28;20097;-66
2022/06/26 04:26:45;;;;;;;26.52;4.00;;;35.50;45.40;;;;;;4953886;28;20126;-67
2022/06/26 04:29:12;;;;;;;25.90;3.90;;;35.40;46.00;;;;;;4951924;29;20540;-69
2022/06/26 04:31:38;;;;;;;17.05;3.85;;;35.40;46.40;;;;;;4952806;28;20087;-65
2022/06/26 04:34:05;;;;;;;23.00;3.83;;;35.40;46.90;;;;;;4953729;28;20096;-67
2022/06/26 04:36:31;;;;;;;24.63;3.97;;;35.40;46.90;;;;;;4953581;29;20188;-67
2022/06/26 04:38:58;;;;;;;21.85;4.20;;;35.30;46.50;;;;;;4968340;28;20401;-67
2022/06/26 04:41:36;;;;;;;20.30;3.70;;;35.20;46.40;;;;;;4968083;28;20074;-65
2022/06/26 04:44:10;;;;;;;18.35;4.60;;;35.10;46.60;;;;;;4937820;29;20052;-67
2022/06/26 04:46:38;;;;;;;35.78;5.80;;;35.20;46.70;;;;;;4952700;28;20083;-67
2022/06/26 04:49:06;;;;;;;28.30;5.57;;;35.10;46.80;;;;;;4952217;29;20045;-69
2022/06/26 04:51:35;;;;;;;21.85;5.97;;;35.10;46.80;;;;;;4952515;28;20151;-68
2022/06/26 04:54:03;;;;;;;31.08;5.00;;;35.10;47.10;;;;;;4952395;28;20059;-70
2022/06/26 04:56:30;;;;;;;18.75;3.20;;;35.10;47.50;;;;;;4966365;28;20058;-68
2022/06/26 04:58:57;;;;;;;18.48;2.88;;;35.00;47.90;;;;;;4967675;28;20063;-68
2022/06/26 05:01:25;;;;;;;16.85;2.65;;;34.90;48.10;;;;;;4952087;28;20080;-69
2022/06/26 05:03:51;;;;;;;17.98;2.60;;;34.90;48.20;;;;;;4966464;28;20064;-69
2022/06/26 05:06:17;;;;;;;13.35;3.13;;;34.90;48.20;;;;;;4949320;29;20126;-69
2022/06/26 05:08:44;;;;;;;30.02;3.38;;;34.90;48.20;;;;;;4948356;29;20051;-70
2022/06/26 05:11:13;;;;;;;13.98;2.45;;;34.80;48.00;;;;;;4950394;28;20055;-68
2022/06/26 05:13:39;;;;;;;11.20;2.42;;;34.80;48.10;;;;;;4950995;28;20059;-69
2022/06/26 05:16:06;;;;;;;13.63;3.00;;;34.70;48.20;;;;;;4962849;28;20152;-67
2022/06/26 05:18:33;;;;;;;18.05;3.20;;;34.60;48.50;;;;;;4950316;29;20096;-69
2022/06/26 05:20:59;;;;;;;11.65;3.03;;;34.50;48.90;;;;;;4966684;28;20137;-67
2022/06/26 05:23:25;;;;;;;16.98;2.85;;;34.50;49.30;;;;;;4966208;28;20100;-66
2022/06/26 05:25:52;;;;;;;19.20;5.28;;;34.40;49.90;;;;;;4951464;28;20429;-69
2022/06/26 05:28:19;;;;;;;35.85;5.28;;;34.40;49.50;;;;;;4950929;29;20524;-68
2022/06/26 05:30:46;;;;;;;19.35;5.40;;;34.40;48.70;;;;;;4952960;28;20080;-68
2022/06/26 05:33:12;;;;;;;33.17;7.35;;;34.40;48.90;;;;;;4950119;29;20053;-67
2022/06/26 05:35:39;;;;;;;29.67;7.18;;;34.40;48.80;;;;;;4948644;28;20061;-69
2022/06/26 05:38:05;;;;;;;21.85;6.47;;;34.40;49.10;;;;;;4967270;28;20062;-68
2022/06/26 05:40:31;;;;;;;30.92;5.18;;;34.30;49.80;;;;;;4951024;29;20200;-68
2022/06/26 05:42:58;;;;;;;21.40;4.03;;;34.20;50.50;;;;;;4966898;28;21051;-69
2022/06/26 05:45:24;;;;;;;17.17;3.53;;;34.00;51.60;;;;;;4965645;28;20062;-69
2022/06/26 05:47:51;;;;;;;22.73;3.78;;;33.90;52.10;;;;;;4966912;28;20113;-68
2022/06/26 05:50:17;;;;;;;26.92;3.67;;;33.80;52.10;;;;;;4966221;28;20168;-65
2022/06/26 05:52:44;;;;;;;32.58;3.58;;;33.80;51.50;;;;;;4966456;28;20061;-67
2022/06/26 05:55:10;;;;;;;20.45;3.22;;;33.80;51.40;;;;;;4966773;28;20084;-68
2022/06/26 05:57:36;;;;;;;23.88;3.45;;;33.80;51.30;;;;;;4950384;28;20452;-70
2022/06/26 06:00:04;;;;;;;17.05;2.85;;;33.80;50.60;;;;;;4952015;28;20060;-72
2022/06/26 06:02:31;;;;;;;30.98;3.35;;;33.80;51.10;;;;;;4950693;28;20056;-68
2022/06/26 06:04:57;;;;;;;30.25;3.85;;;33.80;50.20;;;;;;4966357;28;20067;-68
2022/06/26 06:07:24;;;;;;;17.65;2.75;;;33.80;50.30;;;;;;4965866;28;20447;-68
2022/06/26 06:09:50;;;;;;;21.20;3.15;;;33.80;50.40;;;;;;4951921;28;20797;-66
2022/06/26 06:12:17;;;;;;;18.95;3.42;;;33.80;50.00;;;;;;4950048;28;20067;-67
2022/06/26 06:14:44;;;;;;;17.02;3.13;;;33.90;49.70;;;;;;4966092;28;20058;-66
2022/06/26 06:19:56;;;;;;;14.30;3.55;;;33.90;49.20;;;;;;4950566;29;20139;-68
2022/06/26 06:22:22;;;;;;;12.55;4.07;;;33.90;49.30;;;;;;4951475;28;20584;-66
2022/06/26 06:24:49;;;;;;;18.15;2.95;;;33.90;49.40;;;;;;4949405;28;20064;-64
2022/06/26 06:27:15;;;;;;;15.88;2.80;;;33.90;50.00;;;;;;4947843;29;20137;-66
2022/06/26 06:29:41;;;;;;;12.45;2.40;;;33.90;49.20;;;;;;4948365;28;20067;-67
2022/06/26 06:32:08;;;;;;;11.77;2.75;;;33.80;48.30;;;;;;4964306;28;20058;-65
2022/06/26 06:34:34;;;;;;;16.02;2.83;;;33.80;48.00;;;;;;4948761;28;20467;-64
2022/06/26 06:37:00;;;;;;;20.17;3.13;;;33.90;48.30;;;;;;4965775;28;20503;-68
2022/06/26 06:39:27;;;;;;;21.23;3.15;;;33.80;48.10;;;;;;4950699;28;20074;-65
2022/06/26 06:41:53;;;;;;;14.52;3.00;;;33.80;48.10;;;;;;4964457;28;20058;-69
2022/06/26 06:44:20;;;;;;;12.80;2.47;;;33.80;48.30;;;;;;4965150;28;20610;-68
2022/06/26 06:46:46;;;;;;;23.77;3.53;;;33.80;48.50;;;;;;4965122;28;20083;-65
2022/06/26 06:49:12;;;;;;;15.18;2.70;;;33.70;49.10;;;;;;4947894;28;20444;-66
2022/06/26 06:51:39;;;;;;;10.15;3.10;;;33.70;49.80;;;;;;4964694;28;20453;-67
2022/06/26 06:54:05;;;;;;;17.70;3.42;;;33.60;50.90;;;;;;4965306;28;20068;-66
2022/06/26 06:56:32;;;;;;;18.90;3.25;;;33.60;51.80;;;;;;4950241;28;20127;-69
2022/06/26 06:58:58;;;;;;;15.95;4.20;;;33.50;52.60;;;;;;4951474;28;20141;-67
2022/06/26 07:01:24;;;;;;;14.32;4.13;;;33.40;53.50;;;;;;4964532;28;20070;-66
2022/06/26 07:03:51;;;;;;;12.70;4.07;;;33.40;54.00;;;;;;4951974;28;20096;-67
2022/06/26 07:06:17;;;;;;;16.30;3.90;;;33.40;54.50;;;;;;4965387;28;20091;-67
2022/06/26 07:08:43;;;;;;;13.77;4.05;;;33.30;54.80;;;;;;4947846;29;20477;-67
2022/06/26 07:11:10;;;;;;;16.33;3.60;;;33.20;55.30;;;;;;4965355;28;20087;-67
2022/06/26 07:13:36;;;;;;;17.60;4.05;;;33.10;55.80;;;;;;4950531;28;20058;-67
2022/06/26 07:16:03;;;;;;;15.25;3.50;;;33.00;56.70;;;;;;4949729;29;20109;-67
2022/06/26 07:18:29;;;;;;;14.60;3.95;;;33.00;57.20;;;;;;4950530;28;20067;-68
2022/06/26 07:20:56;;;;;;;13.50;4.55;;;32.90;57.70;;;;;;4947918;29;20063;-69
2022/06/26 07:23:22;;;;;;;23.17;5.32;;;32.90;58.50;;;;;;4931921;29;20586;-65
2022/06/26 07:25:50;;;;;;;15.10;4.43;;;32.80;59.20;;;;;;4963774;28;20600;-68
2022/06/26 07:28:16;;;;;;;12.68;5.25;;;32.80;59.50;;;;;;4963821;28;20156;-67
2022/06/26 07:30:42;;;;;;;22.33;4.40;;;32.70;60.80;;;;;;4964412;28;20688;-68
2022/06/26 07:35:54;;;;;;;9.68;3.97;;;32.70;61.80;;;;;;4949164;28;20476;-67
2022/06/26 07:38:20;;;;;;;20.90;4.65;;;32.70;62.80;;;;;;4952625;28;20126;-66
2022/06/26 07:40:47;;;;;;;21.02;5.28;;;32.60;63.40;;;;;;4969268;28;20068;-70
2022/06/26 07:43:13;;;;;;;22.52;5.13;;;32.60;64.90;;;;;;4952739;29;20515;-68
2022/06/26 07:45:39;;;;;;;15.10;4.22;;;32.50;67.00;;;;;;4968329;28;20091;-67
2022/06/26 07:48:06;;;;;;;21.02;4.07;;;32.40;68.50;;;;;;4953925;28;20071;-68
2022/06/26 07:50:33;;;;;;;23.73;4.35;;;32.30;70.10;;;;;;4968445;28;20059;-67
2022/06/26 07:52:59;;;;;;;21.27;4.55;;;32.30;71.30;;;;;;4952508;28;20067;-70
2022/06/26 07:55:25;;;;;;;19.40;4.43;;;32.20;72.90;;;;;;4968632;28;20559;-67
2022/06/26 07:57:52;;;;;;;11.77;4.38;;;32.10;74.40;;;;;;4951214;29;20065;-66
2022/06/26 08:00:18;;;;;;;27.73;5.93;;;32.10;75.70;;;;;;4952617;29;20077;-68
2022/06/26 08:02:45;;;;;;;22.17;5.25;;;31.90;77.30;;;;;;4968509;28;20058;-68
2022/06/26 08:05:11;;;;;;;19.98;5.10;;;31.90;78.60;;;;;;4952255;29;20513;-68
2022/06/26 08:07:38;;;;;;;31.23;6.00;;;31.90;79.80;;;;;;4968319;28;20091;-67
2022/06/26 08:10:05;;;;;;;25.17;7.43;;;31.80;80.50;;;;;;4951992;29;20091;-67
2022/06/26 08:12:31;;;;;;;19.65;6.63;;;31.80;81.10;;;;;;4968527;28;20470;-68
2022/06/26 08:14:58;;;;;;;27.95;7.43;;;31.70;81.80;;;;;;4953462;28;20108;-66
2022/06/26 08:17:24;;;;;;;29.77;7.90;;;31.70;82.40;;;;;;4955519;28;20115;-64
2022/06/26 08:19:51;;;;;;;27.45;7.50;;;31.70;82.90;;;;;;4966985;28;20094;-70
2022/06/26 08:22:17;;;;;;;23.60;7.90;;;31.70;83.50;;;;;;4967843;28;20087;-68
2022/06/26 08:24:44;;;;;;;20.88;6.28;;;31.70;84.30;;;;;;4967497;28;20226;-70
2022/06/26 08:27:11;;;;;;;23.67;6.82;;;31.70;85.60;;;;;;4968026;28;20087;-67
2022/06/26 08:29:38;;;;;;;21.70;6.25;;;31.60;85.50;;;;;;4966225;28;20103;-67
2022/06/26 08:32:06;;;;;;;17.52;4.30;;;31.60;86.30;;;;;;4967678;28;20068;-67
2022/06/26 08:34:33;;;;;;;20.48;4.35;;;31.60;86.50;;;;;;4967510;28;20543;-68
2022/06/26 08:36:59;;;;;;;22.50;4.90;;;31.60;87.20;;;;;;4953114;28;20092;-67
2022/06/26 08:39:26;;;;;;;16.63;3.83;;;31.50;87.40;;;;;;4952410;28;20150;-68
2022/06/26 08:41:54;;;;;;;16.92;4.28;;;31.50;87.60;;;;;;4952789;28;20102;-68
2022/06/26 08:44:23;;;;;;;18.10;4.10;;;31.40;87.80;;;;;;4968486;28;20093;-68
2022/06/26 08:46:50;;;;;;;20.17;4.32;;;31.50;87.70;;;;;;4953412;29;20079;-68
2022/06/26 08:49:23;;;;;;;12.80;4.18;;;31.40;87.70;;;;;;4966710;28;20518;-68
2022/06/26 08:51:52;;;;;;;17.02;3.50;;;31.40;88.30;;;;;;4950219;29;20089;-68
2022/06/26 08:54:20;;;;;;;15.85;3.78;;;31.40;88.60;;;;;;4968085;28;20107;-67
2022/06/26 08:56:50;;;;;;;15.77;3.90;;;31.40;89.30;;;;;;4966660;28;20106;-67
2022/06/26 08:59:18;;;;;;;22.85;5.10;;;31.40;89.40;;;;;;4950174;28;20151;-68
2022/06/26 09:01:44;;;;;;;15.75;4.65;;;31.40;89.50;;;;;;4952261;28;20096;-68
2022/06/26 09:04:12;;;;;;;17.88;5.13;;;31.40;89.30;;;;;;4950995;29;20076;-67
2022/06/26 09:06:41;;;;;;;15.30;5.50;;;31.40;89.50;;;;;;4966386;28;20095;-69
2022/06/26 09:09:19;;;;;;;18.90;6.00;;;31.30;89.50;;;;;;4950164;28;20065;-69
2022/06/26 09:11:46;;;;;;;25.65;8.07;;;31.30;89.60;;;;;;4952747;28;20079;-68
2022/06/26 09:14:14;;;;;;;25.08;8.52;;;31.30;89.70;;;;;;4967178;28;20161;-67
2022/06/26 09:16:44;;;;;;;29.52;8.57;;;31.30;89.70;;;;;;4967419;28;20570;-67
2022/06/26 09:19:19;;;;;;;22.88;7.05;;;31.20;89.90;;;;;;4950582;29;20095;-68
2022/06/26 09:21:47;;;;;;;25.98;6.55;;;31.20;90.20;;;;;;4952088;28;20438;-67
2022/06/26 09:24:15;;;;;;;21.00;6.40;;;31.20;90.30;;;;;;4967338;28;20078;-65
2022/06/26 09:26:43;;;;;;;21.02;6.47;;;31.10;90.30;;;;;;4949053;29;20572;-70
2022/06/26 09:29:15;;;;;;;24.23;6.60;;;31.10;90.40;;;;;;4966215;28;20077;-67
2022/06/26 09:31:42;;;;;;;22.65;5.95;;;31.10;90.40;;;;;;4965578;28;20075;-66
2022/06/26 09:34:24;;;;;;;19.00;5.18;;;31.10;90.40;;;;;;4965561;28;20068;-66
2022/06/26 09:37:05;;;;;;;22.55;4.78;;;31.10;90.30;;;;;;4949760;28;20096;-66
2022/06/26 09:39:33;;;;;;;25.70;5.97;;;31.10;90.20;;;;;;4966828;28;21414;-67
2022/06/26 09:42:27;;;;;;;15.70;5.47;;;31.10;90.10;;;;;;4966930;28;20423;-67
2022/06/26 09:44:55;;;;;;;21.58;7.68;;;31.20;90.20;;;;;;4962958;28;20167;-65
2022/06/26 09:47:24;;;;;;;27.80;7.65;;;31.10;90.00;;;;;;4967289;28;20083;-66
2022/06/26 09:49:53;;;;;;;22.08;7.40;;;31.10;90.20;;;;;;4951757;28;20070;-68
2022/06/26 09:52:26;;;;;;;30.65;8.65;;;31.00;90.30;;;;;;4966251;28;20522;-68
2022/06/26 09:54:54;;;;;;;26.00;6.43;;;31.00;90.50;;;;;;4949696;29;20111;-69
2022/06/26 09:57:21;;;;;;;20.38;5.53;;;31.00;90.70;;;;;;4950288;29;20077;-67
2022/06/26 09:59:48;;;;;;;20.83;5.68;;;31.00;90.90;;;;;;4949758;28;20076;-69
2022/06/26 10:08:00;;;;;;;28.58;9.98;;;30.90;91.90;;;;;;4950634;29;20124;-67
2022/06/26 10:10:26;;;;;;;28.42;10.00;;;30.80;92.10;;;;;;4951152;28;20076;-68
2022/06/26 10:13:02;;;;;;;25.33;9.98;;;30.80;92.30;;;;;;4965874;28;20072;-67
2022/06/26 10:15:44;;;;;;;29.38;7.88;;;30.80;92.40;;;;;;4949836;28;20112;-69
2022/06/26 10:18:29;;;;;;;19.13;6.00;;;30.80;92.50;;;;;;4965302;28;20077;-67
2022/06/26 10:21:08;;;;;;;20.60;5.05;;;30.70;92.50;;;;;;4964437;28;20543;-66
2022/06/26 10:23:37;;;;;;;21.42;4.70;;;30.70;92.60;;;;;;4965579;28;20514;-68
2022/06/26 10:26:14;;;;;;;14.55;4.47;;;30.60;92.80;;;;;;4965595;28;20090;-66
2022/06/26 10:28:59;;;;;;;16.75;4.22;;;30.70;92.90;;;;;;4950859;28;20090;-68
2022/06/26 10:31:28;;;;;;;10.98;3.83;;;30.70;92.90;;;;;;4950379;29;20068;-67
2022/06/26 10:33:55;;;;;;;15.02;4.25;;;30.70;93.00;;;;;;4948154;29;20073;-67
2022/06/26 10:36:23;;;;;;;14.77;3.72;;;30.60;93.20;;;;;;4963496;28;20089;-69
2022/06/26 10:38:50;;;;;;;13.85;3.55;;;30.50;93.30;;;;;;4965756;28;20084;-67
2022/06/26 10:44:03;;;;;;;;;;;30.40;92.30;;;;;;4948641;29;20231;-66
2022/06/26 10:46:45;;;;;;;12.40;2.97;;;30.30;92.40;;;;;;4952953;28;19978;-69
2022/06/26 10:49:12;;;;;;;9.85;2.70;;;30.20;91.80;;;;;;4964730;28;20090;-66
2022/06/26 10:51:41;;;;;;;17.08;3.28;;;30.30;91.30;;;;;;4965722;28;20108;-66
2022/06/26 10:54:27;;;;;;;12.07;2.42;;;30.20;90.60;;;;;;4965026;28;20464;-66
2022/06/26 10:57:02;;;;;;;11.68;4.00;;;30.00;90.70;;;;;;4964180;28;20089;-67
2022/06/26 10:59:29;;;;;;;13.37;3.37;;;30.00;90.80;;;;;;4965234;28;20078;-66
2022/06/26 11:01:55;;;;;;;11.25;3.10;;;30.00;91.00;;;;;;4965139;28;20484;-67
2022/06/26 11:04:22;;;;;;;18.80;3.92;;;29.90;91.10;;;;;;4965177;28;20090;-67
2022/06/26 11:06:50;;;;;;;14.98;3.85;;;29.90;91.80;;;;;;4947201;28;20085;-67
2022/06/26 11:09:17;;;;;;;21.67;4.93;;;29.80;92.40;;;;;;4949716;28;20073;-68
2022/06/26 11:11:49;;;;;;;18.38;4.80;;;29.80;93.10;;;;;;4951701;28;20085;-66
2022/06/26 11:14:17;;;;;;;14.05;4.13;;;29.90;93.30;;;;;;4968305;28;20222;-65
2022/06/26 11:16:45;;;;;;;15.60;4.63;;;29.90;93.70;;;;;;4968498;28;20167;-67
2022/06/26 11:19:30;;;;;;;23.73;4.35;;;29.90;94.00;;;;;;4952889;29;20301;-66
2022/06/26 11:22:10;;;;;;;12.55;3.72;;;29.90;94.10;;;;;;4969123;28;20075;-66
2022/06/26 11:24:50;;;;;;;23.85;4.85;;;29.80;94.80;;;;;;4968556;28;20072;-68
2022/06/26 11:27:27;;;;;;;23.65;5.40;;;29.80;95.40;;;;;;4953062;28;20084;-66
2022/06/26 11:29:54;;;;;;;19.90;4.75;;;29.80;95.80;;;;;;4968895;28;20157;-65
2022/06/26 11:32:25;;;;;;;23.15;4.85;;;29.80;95.80;;;;;;4968852;28;20132;-66
2022/06/26 11:34:53;;;;;;;20.38;5.50;;;29.90;95.90;;;;;;4951123;28;20080;-64
2022/06/26 11:37:40;;;;;;;21.35;4.95;;;29.80;95.90;;;;;;4951074;29;20119;-64
2022/06/26 11:40:14;;;;;;;20.95;5.18;;;29.80;96.30;;;;;;4951552;29;20169;-69
2022/06/26 11:42:41;;;;;;;22.45;5.78;;;29.80;96.40;;;;;;4966827;28;20078;-67
2022/06/26 11:45:08;;;;;;;21.15;5.63;;;29.80;96.70;;;;;;4968429;28;20084;-66
2022/06/26 11:47:36;;;;;;;25.35;5.60;;;29.80;97.20;;;;;;4954463;28;20176;-66
2022/06/26 11:50:03;;;;;;;19.60;5.20;;;29.70;97.60;;;;;;4968108;28;20080;-67
2022/06/26 11:52:30;;;;;;;17.85;5.00;;;29.80;98.00;;;;;;4969129;28;20097;-66
2022/06/26 11:55:01;;;;;;;17.10;4.22;;;29.70;98.10;;;;;;4951768;28;20078;-67
2022/06/26 11:57:28;;;;;;;19.02;4.85;;;29.70;98.30;;;;;;4935898;29;20178;-66
2022/06/26 11:59:54;;;;;;;17.45;4.30;;;29.80;98.40;;;;;;4951073;29;20440;-68
2022/06/26 12:02:26;;;;;;;17.38;4.70;;;29.70;98.40;;;;;;4953683;28;20105;-67
2022/06/26 12:04:57;;;;;;;16.55;4.15;;;29.80;98.40;;;;;;4953309;28;20558;-64
2022/06/26 12:07:24;;;;;;;21.52;4.10;;;29.70;98.30;;;;;;4966406;28;20192;-67
2022/06/26 12:09:50;;;;;;;21.75;4.40;;;29.70;98.30;;;;;;4950033;28;20076;-68
2022/06/26 12:12:17;;;;;;;17.70;4.25;;;29.70;98.20;;;;;;4953174;28;20082;-67
2022/06/26 12:14:54;;;;;;;24.23;4.35;;;29.70;98.10;;;;;;4967086;28;20139;-67
2022/06/26 12:17:28;;;;;;;15.70;4.05;;;29.60;98.10;;;;;;4952683;29;20128;-65
2022/06/26 12:20:05;;;;;;;18.63;4.93;;;29.60;98.80;;;;;;4952093;28;20145;-67
2022/06/26 12:22:33;;;;;;;22.40;4.65;;;29.50;98.50;;;;;;4951519;28;20078;-66
2022/06/26 12:25:00;;;;;;;21.23;5.07;;;29.50;98.30;;;;;;4968043;28;20098;-66
2022/06/26 12:27:43;;;;;;;19.35;4.68;;;29.50;98.10;;;;;;4951827;29;20093;-66
2022/06/26 12:30:19;;;;;;;21.52;5.57;;;29.50;98.10;;;;;;4967782;28;20528;-66
2022/06/26 12:32:46;;;;;;;17.38;4.47;;;29.40;98.60;;;;;;4952524;29;20536;-67
2022/06/26 12:35:12;;;;;;;19.98;4.40;;;29.30;98.60;;;;;;4967750;28;20078;-66
2022/06/26 12:37:39;;;;;;;21.52;4.82;;;29.40;98.60;;;;;;4967441;28;20085;-67
2022/06/26 12:40:07;;;;;;;14.70;4.07;;;29.40;98.60;;;;;;4951430;29;20069;-66
2022/06/26 12:42:33;;;;;;;19.05;4.80;;;29.30;98.20;;;;;;4967241;28;20480;-68
2022/06/26 12:45:00;;;;;;;20.17;5.28;;;29.30;98.20;;;;;;4952941;28;20125;-68
2022/06/26 12:47:27;;;;;;;19.65;5.43;;;29.20;98.00;;;;;;4953794;28;20098;-67
2022/06/26 12:49:53;;;;;;;18.35;5.22;;;29.20;98.20;;;;;;4950989;29;20532;-66
2022/06/26 12:52:19;;;;;;;19.73;4.25;;;29.20;98.10;;;;;;4967150;28;20095;-66
2022/06/26 12:54:46;;;;;;;22.00;4.57;;;29.10;98.30;;;;;;4951598;28;20067;-65
2022/06/26 12:57:12;;;;;;;20.75;5.43;;;29.10;98.40;;;;;;4951290;28;20487;-65
2022/06/26 12:59:39;;;;;;;17.75;6.65;;;29.10;98.20;;;;;;4949975;28;20617;-65
2022/06/26 13:02:05;;;;;;;19.70;8.02;;;29.00;98.10;;;;;;4952831;28;20089;-67
2022/06/26 13:04:31;;;;;;;24.90;7.90;;;29.00;98.20;;;;;;4951242;28;20082;-67
2022/06/26 13:06:58;;;;;;;26.05;8.52;;;29.10;98.20;;;;;;4966928;28;20594;-67